Time;durP1;ratioP1;P1;durP2;ratioP2;P2;SDS_P1;SDS_P2;PMS_P1;PMS_P2;Temp;Humidity;BMP_temperature;BMP_pressure;BME280_temperature;BME280_humidity;BME280_pressure;Samples;Min_cycle;Max_cycle;Signal;HPM_P1;HPM_P2
2021/12/31 00:01:02;;;;;;;6.47;2.90;;;14.50;86.50;;;;;;6118634;23;20016;-91
2021/12/31 00:03:28;;;;;;;9.20;3.08;;;14.50;86.60;;;;;;6120163;23;20005;-94
2021/12/31 00:05:53;;;;;;;6.35;3.28;;;14.50;86.60;;;;;;6117858;23;20059;-93
2021/12/31 00:08:19;;;;;;;7.25;3.03;;;14.50;86.80;;;;;;6144691;23;20008;-94
2021/12/31 00:10:45;;;;;;;7.30;3.38;;;14.50;86.80;;;;;;6117866;23;20013;-92
2021/12/31 00:13:11;;;;;;;6.65;2.85;;;14.50;86.90;;;;;;6142114;23;20020;-92
2021/12/31 00:15:36;;;;;;;8.63;3.00;;;14.50;86.90;;;;;;6140847;23;20147;-93
2021/12/31 00:18:02;;;;;;;8.50;2.90;;;14.50;86.90;;;;;;6117859;23;20013;-94
2021/12/31 00:20:29;;;;;;;7.03;3.40;;;14.50;86.90;;;;;;6142869;23;20440;-91
2021/12/31 00:25:20;;;;;;;5.15;2.78;;;14.50;86.90;;;;;;6168341;23;20021;-94
2021/12/31 00:27:46;;;;;;;7.70;3.05;;;14.40;86.80;;;;;;6119854;23;20503;-94
2021/12/31 00:30:13;;;;;;;7.88;3.47;;;14.50;86.80;;;;;;6118746;23;20013;-94
2021/12/31 00:32:39;;;;;;;6.93;2.75;;;14.40;86.70;;;;;;6118792;23;20039;-92
2021/12/31 00:35:06;;;;;;;10.15;3.50;;;14.50;86.80;;;;;;6120578;23;20008;-95
2021/12/31 00:37:38;;;;;;;9.30;2.90;;;14.40;86.60;;;;;;6121443;23;20680;-94
2021/12/31 00:40:09;;;;;;;7.85;3.13;;;14.40;86.60;;;;;;6123738;23;20135;-95
2021/12/31 00:42:34;;;;;;;6.80;3.00;;;14.40;86.60;;;;;;6122282;23;20000;-93
2021/12/31 00:45:01;;;;;;;7.13;3.05;;;14.40;86.60;;;;;;6115445;23;20059;-92
2021/12/31 00:47:26;;;;;;;5.80;3.20;;;14.40;86.60;;;;;;6120113;23;20063;-94
2021/12/31 00:49:52;;;;;;;6.82;3.05;;;14.40;86.60;;;;;;6121275;23;20300;-92
2021/12/31 00:52:18;;;;;;;6.10;3.20;;;14.40;86.50;;;;;;6120514;23;20016;-93
2021/12/31 00:54:44;;;;;;;7.82;3.33;;;14.40;86.50;;;;;;6146888;23;20016;-94
2021/12/31 00:57:11;;;;;;;6.38;3.05;;;14.40;86.40;;;;;;6142863;23;20017;-92
2021/12/31 00:59:37;;;;;;;6.72;3.08;;;14.60;86.40;;;;;;6145174;23;20432;-94
2021/12/31 01:02:05;;;;;;;6.43;2.50;;;14.50;86.30;;;;;;6121094;23;20016;-95
2021/12/31 01:04:32;;;;;;;6.13;3.00;;;14.50;86.20;;;;;;6120394;23;20036;-94
2021/12/31 01:06:58;;;;;;;5.88;2.65;;;14.50;86.10;;;;;;6125244;23;20095;-93
2021/12/31 01:09:28;;;;;;;4.97;2.38;;;14.50;86.10;;;;;;6120064;23;20031;-94
2021/12/31 01:11:56;;;;;;;5.97;2.33;;;14.50;85.90;;;;;;6117138;23;20475;-95
2021/12/31 01:16:57;;;;;;;8.98;2.22;;;14.50;85.80;;;;;;6144397;23;20095;-93
2021/12/31 01:21:50;;;;;;;4.97;2.30;;;14.50;85.60;;;;;;6145352;23;20050;-94
2021/12/31 01:24:18;;;;;;;4.53;2.22;;;14.40;85.50;;;;;;6120459;23;20017;-91
2021/12/31 01:26:44;;;;;;;5.28;2.25;;;14.50;85.40;;;;;;6119431;23;20515;-91
2021/12/31 01:29:10;;;;;;;3.97;2.03;;;14.40;85.30;;;;;;6144252;23;20001;-94
2021/12/31 01:31:36;;;;;;;4.60;1.88;;;14.40;85.20;;;;;;6118731;23;20019;-92
2021/12/31 01:34:02;;;;;;;6.50;2.25;;;14.40;85.20;;;;;;6147570;23;20315;-93
2021/12/31 01:36:28;;;;;;;4.25;1.88;;;14.30;85.20;;;;;;6141919;23;20571;-94
2021/12/31 01:38:54;;;;;;;5.72;1.85;;;14.30;85.10;;;;;;6119402;23;20004;-91
2021/12/31 01:41:21;;;;;;;4.40;2.10;;;14.30;85.10;;;;;;6144784;23;20017;-93
2021/12/31 01:43:47;;;;;;;5.25;2.08;;;14.30;84.90;;;;;;6120688;23;20005;-94
2021/12/31 01:46:13;;;;;;;3.53;1.75;;;14.50;85.10;;;;;;6143116;23;20025;-94
2021/12/31 01:51:15;;;;;;;4.00;2.05;;;14.30;84.90;;;;;;6143820;23;20024;-93
2021/12/31 01:53:41;;;;;;;3.38;1.50;;;14.30;84.80;;;;;;6119119;23;20424;-93
2021/12/31 01:56:07;;;;;;;3.53;1.75;;;14.40;84.90;;;;;;6145720;23;20483;-93
2021/12/31 01:58:34;;;;;;;4.80;1.85;;;14.30;84.80;;;;;;6144537;23;20012;-94
2021/12/31 02:01:03;;;;;;;3.63;1.52;;;14.60;84.90;;;;;;6115088;23;20012;-94
2021/12/31 02:03:31;;;;;;;6.22;1.85;;;14.30;84.60;;;;;;6145336;23;20008;-93
2021/12/31 02:05:57;;;;;;;5.82;1.73;;;14.30;84.50;;;;;;6140871;23;20027;-94
2021/12/31 02:08:23;;;;;;;4.60;1.70;;;14.20;84.40;;;;;;6122053;23;20040;-92
2021/12/31 02:10:51;;;;;;;3.08;1.52;;;14.20;84.30;;;;;;6144020;23;20024;-92
2021/12/31 02:13:18;;;;;;;6.18;1.58;;;14.20;84.30;;;;;;6118365;23;20071;-93
2021/12/31 02:15:44;;;;;;;4.18;1.58;;;14.20;84.20;;;;;;6114581;23;20016;-94
2021/12/31 02:18:10;;;;;;;3.90;1.67;;;14.20;84.20;;;;;;6145693;23;20059;-92
2021/12/31 02:20:44;;;;;;;5.25;2.83;;;14.20;84.20;;;;;;6145651;23;20119;-93
2021/12/31 02:23:26;;;;;;;4.57;2.13;;;14.20;84.00;;;;;;6119364;23;20008;-94
2021/12/31 02:25:53;;;;;;;5.15;1.70;;;14.20;84.00;;;;;;6117788;23;20479;-92
2021/12/31 02:28:19;;;;;;;10.23;4.30;;;14.20;84.00;;;;;;6118722;23;20008;-93
2021/12/31 02:30:47;;;;;;;6.85;2.65;;;14.40;84.10;;;;;;6142434;23;20035;-94
2021/12/31 02:33:13;;;;;;;4.35;2.03;;;14.20;83.90;;;;;;6118425;23;20016;-93
2021/12/31 02:35:39;;;;;;;6.57;2.30;;;14.20;83.80;;;;;;6120151;23;20016;-94
2021/12/31 02:38:07;;;;;;;6.20;2.10;;;14.20;83.60;;;;;;6118910;23;20005;-93
2021/12/31 02:40:35;;;;;;;6.68;1.70;;;14.20;83.50;;;;;;6118687;23;20008;-93
2021/12/31 02:43:01;;;;;;;5.30;1.88;;;14.60;84.20;;;;;;6144005;23;20448;-93
2021/12/31 02:45:34;;;;;;;3.45;1.50;;;14.10;83.30;;;;;;6139700;23;20012;-93
2021/12/31 02:48:02;;;;;;;4.10;1.52;;;14.30;83.40;;;;;;6121006;23;20005;-94
2021/12/31 02:50:38;;;;;;;3.35;1.65;;;14.10;83.30;;;;;;6142316;23;20016;-93
2021/12/31 02:53:14;;;;;;;3.33;1.40;;;14.30;83.40;;;;;;6122409;23;20013;-93
2021/12/31 02:55:43;;;;;;;4.90;2.15;;;14.10;83.20;;;;;;6118260;23;20009;-91
2021/12/31 02:58:10;;;;;;;3.88;1.58;;;14.10;83.30;;;;;;6122652;23;20086;-91
2021/12/31 03:00:39;;;;;;;3.50;1.80;;;14.30;83.40;;;;;;6141346;23;20019;-92
2021/12/31 03:03:07;;;;;;;3.75;1.50;;;14.40;83.30;;;;;;6145256;23;20089;-93
2021/12/31 03:05:35;;;;;;;4.10;1.98;;;14.10;83.10;;;;;;6119493;23;20009;-94
2021/12/31 03:08:03;;;;;;;3.17;1.77;;;14.10;83.00;;;;;;6142010;23;20001;-94
2021/12/31 03:10:30;;;;;;;4.45;1.40;;;14.10;83.00;;;;;;6118037;23;20027;-93
2021/12/31 03:12:57;;;;;;;3.30;1.60;;;14.10;82.90;;;;;;6120159;23;20269;-94
2021/12/31 03:15:25;;;;;;;3.47;1.60;;;14.10;82.90;;;;;;6117231;23;20012;-93
2021/12/31 03:17:51;;;;;;;3.90;1.38;;;14.10;82.80;;;;;;6118000;23;20533;-93
2021/12/31 03:20:26;;;;;;;4.65;1.70;;;14.10;82.80;;;;;;6118181;23;20016;-93
2021/12/31 03:22:52;;;;;;;5.00;1.70;;;14.10;82.80;;;;;;6144278;23;20012;-93
2021/12/31 03:25:18;;;;;;;6.32;1.60;;;14.10;82.70;;;;;;6143895;23;20036;-93
2021/12/31 03:27:44;;;;;;;3.03;1.33;;;14.20;82.70;;;;;;6116101;23;20439;-93
2021/12/31 03:30:11;;;;;;;4.78;1.50;;;14.10;82.70;;;;;;6142549;23;20032;-95
2021/12/31 03:32:38;;;;;;;4.15;1.80;;;14.00;82.50;;;;;;6117943;23;20016;-91
2021/12/31 03:35:04;;;;;;;4.82;1.95;;;14.00;82.40;;;;;;6121834;23;20020;-92
2021/12/31 03:37:30;;;;;;;3.70;1.50;;;14.00;82.50;;;;;;6117641;23;20024;-93
2021/12/31 03:39:56;;;;;;;7.80;1.70;;;14.00;82.40;;;;;;6144017;23;20095;-94
2021/12/31 03:42:21;;;;;;;5.13;2.15;;;14.00;82.40;;;;;;6118461;23;20017;-94
2021/12/31 03:44:47;;;;;;;10.70;1.98;;;14.00;82.40;;;;;;6117481;23;20016;-92
2021/12/31 03:47:13;;;;;;;4.95;1.45;;;14.00;82.40;;;;;;6141577;23;20012;-94
2021/12/31 03:49:39;;;;;;;2.97;1.60;;;14.00;82.90;;;;;;6141170;23;20525;-93
2021/12/31 03:52:05;;;;;;;4.30;1.85;;;14.00;82.30;;;;;;6140090;23;20047;-94
2021/12/31 03:54:31;;;;;;;4.68;1.85;;;14.00;82.30;;;;;;6143437;23;20009;-91
2021/12/31 03:56:57;;;;;;;5.03;2.22;;;14.00;82.20;;;;;;6144593;23;20027;-93
2021/12/31 03:59:22;;;;;;;4.38;2.08;;;14.00;82.10;;;;;;6118926;23;20013;-93
2021/12/31 04:01:48;;;;;;;5.32;2.78;;;14.00;82.10;;;;;;6143323;23;20013;-94
2021/12/31 04:04:14;;;;;;;3.67;1.85;;;14.00;82.00;;;;;;6145178;23;20023;-94
2021/12/31 04:06:40;;;;;;;4.10;1.98;;;14.20;82.00;;;;;;6143215;23;20471;-92
2021/12/31 04:09:07;;;;;;;7.80;2.38;;;13.90;81.80;;;;;;6145233;23;20074;-94
2021/12/31 04:11:33;;;;;;;6.13;3.08;;;13.90;81.80;;;;;;6148024;23;20074;-93
2021/12/31 04:13:58;;;;;;;7.40;2.58;;;13.90;81.70;;;;;;6143531;23;19997;-94
2021/12/31 04:16:24;;;;;;;4.88;2.05;;;13.90;81.70;;;;;;6119970;23;20059;-91
2021/12/31 04:18:50;;;;;;;4.32;1.95;;;13.90;81.50;;;;;;6121216;23;20004;-93
2021/12/31 04:21:18;;;;;;;3.95;1.50;;;13.90;81.50;;;;;;6143536;23;20067;-94
2021/12/31 04:23:50;;;;;;;4.80;1.77;;;13.90;81.50;;;;;;6148512;23;20005;-94
2021/12/31 04:26:16;;;;;;;5.28;1.60;;;13.90;81.50;;;;;;6145425;23;20083;-94
2021/12/31 04:28:42;;;;;;;2.95;1.60;;;13.80;81.40;;;;;;6146330;23;20410;-94
2021/12/31 04:31:08;;;;;;;3.40;1.60;;;13.80;81.30;;;;;;6119138;23;20017;-92
2021/12/31 04:33:33;;;;;;;3.47;1.60;;;13.80;81.30;;;;;;6146773;23;20455;-93
2021/12/31 04:35:59;;;;;;;4.50;1.98;;;13.80;81.30;;;;;;6142953;23;20032;-94
2021/12/31 04:38:25;;;;;;;3.63;1.60;;;13.80;81.30;;;;;;6121123;23;20458;-92
2021/12/31 04:40:51;;;;;;;19.38;2.28;;;13.80;81.30;;;;;;6144675;23;20008;-91
2021/12/31 04:43:17;;;;;;;5.05;1.90;;;13.80;81.30;;;;;;6149017;23;20026;-93
2021/12/31 04:45:42;;;;;;;3.97;1.60;;;13.70;81.20;;;;;;6142419;23;20035;-95
2021/12/31 04:48:08;;;;;;;5.50;1.92;;;13.80;81.10;;;;;;6120534;23;20024;-93
2021/12/31 04:50:34;;;;;;;4.15;1.65;;;13.90;81.20;;;;;;6147462;23;20008;-91
2021/12/31 04:53:02;;;;;;;4.45;1.50;;;13.80;81.10;;;;;;6143186;23;20099;-94
2021/12/31 04:55:28;;;;;;;3.22;1.50;;;13.70;81.00;;;;;;6122929;23;20058;-94
2021/12/31 04:57:54;;;;;;;5.70;1.98;;;13.70;81.00;;;;;;6142211;23;20020;-94
2021/12/31 05:00:20;;;;;;;3.28;1.60;;;13.70;80.90;;;;;;6142721;23;20382;-94
2021/12/31 05:02:45;;;;;;;3.47;1.90;;;13.70;80.80;;;;;;6145044;23;20067;-93
2021/12/31 05:05:11;;;;;;;4.85;2.00;;;13.70;80.80;;;;;;6121904;23;20352;-94
2021/12/31 05:07:38;;;;;;;3.80;1.92;;;14.10;81.00;;;;;;6119933;23;20017;-92
2021/12/31 05:10:04;;;;;;;5.68;2.03;;;13.70;80.70;;;;;;6143248;23;20005;-93
2021/12/31 05:12:33;;;;;;;5.25;1.83;;;13.70;80.50;;;;;;6117657;23;20023;-93
2021/12/31 05:15:01;;;;;;;3.90;1.67;;;13.60;80.40;;;;;;6121248;23;20036;-93
2021/12/31 05:17:27;;;;;;;5.25;1.65;;;13.60;80.40;;;;;;6142247;23;20040;-94
2021/12/31 05:19:53;;;;;;;4.68;1.70;;;13.60;80.40;;;;;;6119853;23;20272;-94
2021/12/31 05:22:18;;;;;;;5.05;1.55;;;13.60;80.40;;;;;;6144009;23;20027;-94
2021/12/31 05:24:44;;;;;;;3.05;1.92;;;13.60;80.30;;;;;;6121262;23;20036;-93
2021/12/31 05:27:10;;;;;;;3.95;1.42;;;13.60;80.30;;;;;;6144213;23;20012;-93
2021/12/31 05:29:36;;;;;;;4.18;1.63;;;13.60;80.30;;;;;;6119490;23;20104;-93
2021/12/31 05:32:03;;;;;;;4.28;2.20;;;13.50;80.20;;;;;;6117200;23;20015;-92
2021/12/31 05:34:29;;;;;;;3.78;1.75;;;13.50;80.10;;;;;;6119649;23;20019;-93
2021/12/31 05:36:54;;;;;;;3.63;1.83;;;13.40;80.10;;;;;;6144984;23;20016;-94
2021/12/31 05:39:20;;;;;;;4.40;1.83;;;13.50;80.10;;;;;;6143982;23;20013;-93
2021/12/31 05:41:46;;;;;;;6.95;2.00;;;13.60;80.10;;;;;;6143338;23;20518;-94
2021/12/31 05:44:12;;;;;;;3.15;1.83;;;13.50;80.00;;;;;;6143309;23;20445;-91
2021/12/31 05:46:39;;;;;;;4.65;1.92;;;13.40;80.00;;;;;;6118376;23;20055;-91
2021/12/31 05:49:05;;;;;;;6.35;1.88;;;13.40;80.00;;;;;;6123134;23;20009;-91
2021/12/31 05:51:31;;;;;;;6.03;1.77;;;13.40;80.00;;;;;;6143215;23;20080;-92
2021/12/31 05:53:57;;;;;;;3.92;1.73;;;13.40;80.00;;;;;;6121356;23;20017;-89
2021/12/31 05:56:23;;;;;;;5.13;1.92;;;13.40;80.00;;;;;;6118199;23;20026;-91
2021/12/31 05:58:49;;;;;;;3.78;1.75;;;13.40;80.00;;;;;;6121448;23;20016;-91
2021/12/31 06:01:15;;;;;;;3.70;1.73;;;13.40;80.00;;;;;;6144148;23;20595;-92
2021/12/31 06:03:41;;;;;;;5.10;2.17;;;13.40;80.00;;;;;;6117866;23;20012;-90
2021/12/31 06:06:07;;;;;;;3.35;1.70;;;13.40;80.00;;;;;;6146382;23;20024;-90
2021/12/31 06:08:32;;;;;;;3.80;1.70;;;13.30;80.00;;;;;;6120256;23;20291;-92
2021/12/31 06:10:58;;;;;;;5.50;1.83;;;13.40;80.00;;;;;;6120896;23;20468;-90
2021/12/31 06:13:24;;;;;;;5.65;1.77;;;13.30;80.00;;;;;;6120980;23;20017;-89
2021/12/31 06:15:57;;;;;;;3.72;1.88;;;13.30;80.00;;;;;;6119992;23;20009;-91
2021/12/31 06:18:23;;;;;;;8.38;1.55;;;13.30;80.00;;;;;;6146114;23;20017;-89
2021/12/31 06:20:49;;;;;;;5.28;1.70;;;13.50;80.00;;;;;;6126365;23;20008;-91
2021/12/31 06:23:14;;;;;;;3.15;1.40;;;13.60;80.00;;;;;;6153846;23;20284;-91
2021/12/31 06:25:40;;;;;;;4.78;1.60;;;13.30;79.70;;;;;;6123133;23;20016;-92
2021/12/31 06:28:06;;;;;;;4.97;1.50;;;13.30;79.40;;;;;;6147134;23;20013;-89
2021/12/31 06:30:32;;;;;;;3.70;2.28;;;13.30;79.30;;;;;;6148038;23;20055;-92
2021/12/31 06:33:00;;;;;;;3.42;1.80;;;13.30;79.20;;;;;;6147213;23;20028;-91
2021/12/31 06:35:26;;;;;;;8.48;2.20;;;13.50;79.30;;;;;;6149190;23;20009;-92
2021/12/31 06:37:53;;;;;;;9.70;2.78;;;13.30;79.70;;;;;;6122744;23;20538;-91
2021/12/31 06:40:19;;;;;;;6.18;2.40;;;13.50;79.30;;;;;;6149283;23;20019;-90
2021/12/31 06:42:45;;;;;;;4.03;1.80;;;13.20;79.30;;;;;;6144146;23;20012;-89
2021/12/31 06:45:11;;;;;;;4.22;1.65;;;13.50;79.50;;;;;;6146870;23;20613;-91
2021/12/31 06:47:36;;;;;;;5.18;2.10;;;13.20;79.30;;;;;;6145731;23;20012;-90
2021/12/31 06:50:04;;;;;;;3.53;1.70;;;13.20;79.40;;;;;;6121145;23;20513;-91
2021/12/31 06:52:30;;;;;;;2.72;1.77;;;13.20;79.30;;;;;;6118685;23;20020;-91
2021/12/31 06:54:55;;;;;;;4.18;1.60;;;13.20;79.40;;;;;;6168543;23;20020;-91
2021/12/31 06:57:21;;;;;;;3.92;1.52;;;13.20;79.30;;;;;;6118167;23;20285;-91
2021/12/31 06:59:47;;;;;;;4.32;1.98;;;13.20;79.30;;;;;;6143650;23;20066;-90
2021/12/31 07:02:13;;;;;;;3.30;1.50;;;13.20;79.20;;;;;;6119653;23;20016;-91
2021/12/31 07:04:39;;;;;;;3.80;1.60;;;13.20;79.10;;;;;;6146186;23;20396;-92
2021/12/31 07:07:05;;;;;;;4.68;1.60;;;13.50;79.20;;;;;;6144434;23;20130;-91
2021/12/31 07:09:31;;;;;;;7.43;3.83;;;13.20;79.00;;;;;;6144269;23;20008;-91
2021/12/31 07:11:56;;;;;;;10.75;4.25;;;13.50;79.30;;;;;;6145460;23;20475;-91
2021/12/31 07:14:22;;;;;;;29.98;12.02;;;13.20;79.20;;;;;;6142237;23;20013;-91
2021/12/31 07:16:48;;;;;;;8.50;4.10;;;13.20;79.20;;;;;;6119094;23;20012;-91
2021/12/31 07:19:14;;;;;;;8.93;3.83;;;13.10;79.10;;;;;;6123275;23;20531;-91
2021/12/31 07:21:39;;;;;;;20.08;8.73;;;13.10;79.70;;;;;;6117926;23;20095;-92
2021/12/31 07:24:06;;;;;;;12.25;5.38;;;13.10;79.20;;;;;;6120084;23;20008;-93
2021/12/31 07:26:31;;;;;;;23.98;10.10;;;13.10;79.30;;;;;;6119381;23;20008;-93
2021/12/31 07:28:57;;;;;;;29.30;14.02;;;13.10;79.40;;;;;;6120427;23;20047;-92
2021/12/31 07:31:23;;;;;;;13.00;6.45;;;13.10;79.50;;;;;;6115916;23;20008;-93
2021/12/31 07:33:49;;;;;;;5.57;2.55;;;13.10;79.50;;;;;;6143382;23;20011;-91
2021/12/31 07:36:14;;;;;;;5.60;2.97;;;13.10;79.60;;;;;;6119577;23;20067;-94
2021/12/31 07:38:47;;;;;;;6.97;2.70;;;13.30;79.80;;;;;;6116774;23;20020;-93
2021/12/31 07:41:13;;;;;;;7.10;2.70;;;13.20;79.70;;;;;;6141139;23;20023;-91
2021/12/31 07:43:38;;;;;;;8.48;3.28;;;13.10;79.70;;;;;;6141607;23;20020;-91
2021/12/31 07:46:04;;;;;;;5.10;2.85;;;13.00;79.70;;;;;;6117594;23;20017;-93
2021/12/31 07:48:30;;;;;;;5.80;2.00;;;13.10;79.80;;;;;;6142338;23;20347;-85
2021/12/31 07:50:56;;;;;;;4.30;2.33;;;13.00;79.70;;;;;;6170155;23;20016;-93
2021/12/31 07:53:22;;;;;;;7.50;2.10;;;13.00;79.70;;;;;;6119479;23;20040;-93
2021/12/31 07:55:50;;;;;;;7.70;3.92;;;13.00;79.70;;;;;;6121331;23;20008;-91
2021/12/31 07:58:16;;;;;;;9.60;5.80;;;13.00;79.70;;;;;;6143509;23;20016;-92
2021/12/31 08:00:42;;;;;;;5.85;2.60;;;13.40;80.00;;;;;;6116394;23;20408;-92
2021/12/31 08:03:07;;;;;;;6.03;2.60;;;13.00;79.70;;;;;;6142103;23;20016;-92
2021/12/31 08:05:33;;;;;;;6.13;2.80;;;13.10;79.90;;;;;;6143555;23;20474;-93
2021/12/31 08:08:01;;;;;;;3.35;1.95;;;13.10;79.80;;;;;;6119483;23;20067;-93
2021/12/31 08:10:27;;;;;;;5.03;2.65;;;13.10;79.90;;;;;;6121780;23;20020;-93
2021/12/31 08:12:53;;;;;;;6.40;2.88;;;13.30;80.00;;;;;;6146861;23;20052;-93
2021/12/31 08:15:19;;;;;;;6.03;2.40;;;13.40;80.00;;;;;;6121176;23;20063;-92
2021/12/31 08:17:44;;;;;;;5.10;2.20;;;13.00;79.80;;;;;;6121853;23;20075;-93
2021/12/31 08:20:11;;;;;;;4.05;1.98;;;13.00;79.80;;;;;;6144438;23;20321;-93
2021/12/31 08:22:37;;;;;;;4.75;2.00;;;13.10;80.40;;;;;;6147192;23;20017;-91
2021/12/31 08:25:04;;;;;;;4.15;2.00;;;13.00;79.90;;;;;;6146918;23;20023;-92
2021/12/31 08:27:29;;;;;;;3.58;2.20;;;13.00;80.40;;;;;;6146476;23;20076;-94
2021/12/31 08:29:55;;;;;;;3.85;1.90;;;13.20;80.50;;;;;;6122034;23;20011;-93
2021/12/31 08:32:21;;;;;;;3.08;1.70;;;13.00;80.40;;;;;;6143538;23;20013;-92
2021/12/31 08:34:47;;;;;;;6.10;2.00;;;13.30;80.00;;;;;;6146316;23;20015;-93
2021/12/31 08:37:12;;;;;;;8.63;2.00;;;13.00;79.80;;;;;;6120627;23;20455;-94
2021/12/31 08:39:38;;;;;;;3.65;1.83;;;13.00;79.90;;;;;;6146469;23;20444;-92
2021/12/31 08:42:05;;;;;;;5.03;2.17;;;13.00;80.00;;;;;;6120884;23;20509;-95
2021/12/31 08:44:31;;;;;;;6.20;1.90;;;13.00;80.00;;;;;;6122498;23;20008;-91
2021/12/31 08:46:56;;;;;;;3.83;1.80;;;13.00;80.10;;;;;;6122126;23;20009;-94
2021/12/31 08:49:24;;;;;;;6.10;3.15;;;13.00;80.10;;;;;;6123059;23;20023;-94
2021/12/31 08:51:50;;;;;;;6.88;3.47;;;13.00;80.10;;;;;;6147728;23;20443;-94
2021/12/31 08:54:16;;;;;;;12.20;5.15;;;13.00;80.20;;;;;;6148482;23;20012;-94
2021/12/31 08:56:43;;;;;;;11.50;5.43;;;13.30;80.40;;;;;;6148492;23;20470;-93
2021/12/31 08:59:10;;;;;;;4.70;2.67;;;13.00;80.30;;;;;;6126071;23;20076;-93
2021/12/31 09:01:36;;;;;;;6.55;2.50;;;13.00;80.20;;;;;;6121623;23;20023;-96
2021/12/31 09:04:01;;;;;;;13.68;2.70;;;13.10;80.30;;;;;;6146848;23;20036;-94
2021/12/31 09:06:27;;;;;;;4.68;2.20;;;13.10;80.30;;;;;;6148269;23;20009;-94
2021/12/31 09:08:53;;;;;;;5.18;2.65;;;13.10;80.20;;;;;;6132210;23;20048;-94
2021/12/31 09:11:19;;;;;;;3.20;1.85;;;13.00;80.20;;;;;;6149461;23;20008;-95
2021/12/31 09:13:46;;;;;;;4.00;2.00;;;13.00;80.20;;;;;;6123470;23;20330;-92
2021/12/31 09:16:12;;;;;;;3.35;1.95;;;13.00;80.30;;;;;;6147111;23;20473;-94
2021/12/31 09:18:38;;;;;;;3.58;1.90;;;13.30;80.60;;;;;;6122109;23;20055;-92
2021/12/31 09:21:04;;;;;;;4.82;2.38;;;13.00;81.00;;;;;;6124251;23;20431;-94
2021/12/31 09:23:30;;;;;;;4.65;2.95;;;13.10;80.40;;;;;;6147390;23;20017;-92
2021/12/31 09:25:57;;;;;;;5.15;1.92;;;13.10;80.60;;;;;;6145176;23;20005;-94
2021/12/31 09:28:24;;;;;;;5.30;2.35;;;13.10;80.70;;;;;;6122626;23;20435;-94
2021/12/31 09:30:50;;;;;;;4.50;1.95;;;13.10;80.70;;;;;;6147991;23;19997;-93
2021/12/31 09:33:16;;;;;;;4.00;1.80;;;13.10;80.70;;;;;;6150141;23;20039;-94
2021/12/31 09:35:42;;;;;;;3.42;2.10;;;13.10;80.80;;;;;;6123343;23;20008;-94
2021/12/31 09:38:09;;;;;;;5.07;2.70;;;13.10;80.80;;;;;;6146517;23;20095;-94
2021/12/31 09:40:39;;;;;;;3.67;1.95;;;13.10;80.90;;;;;;6123595;23;20009;-94
2021/12/31 09:43:12;;;;;;;5.25;2.80;;;13.10;81.00;;;;;;6122388;23;20016;-94
2021/12/31 09:45:42;;;;;;;7.25;4.07;;;13.10;81.00;;;;;;6125234;23;20008;-93
2021/12/31 09:48:17;;;;;;;5.18;2.30;;;13.40;81.30;;;;;;6122896;23;20036;-93
2021/12/31 09:50:47;;;;;;;6.85;3.40;;;13.10;81.30;;;;;;6125090;23;20004;-93
2021/12/31 09:53:15;;;;;;;6.93;3.00;;;13.10;81.40;;;;;;6122270;23;20083;-92
2021/12/31 09:55:54;;;;;;;4.47;2.53;;;13.10;81.50;;;;;;6121679;23;20052;-93
2021/12/31 16:51:46;;;;;;;8.20;4.30;;;14.90;87.20;;;;;;6187831;23;20028;-92
2021/12/31 16:54:13;;;;;;;12.38;5.47;;;14.80;87.30;;;;;;6174261;23;20024;-92
2021/12/31 16:56:39;;;;;;;10.75;5.78;;;14.80;87.20;;;;;;6173933;23;20083;-92
2021/12/31 16:59:04;;;;;;;15.70;8.68;;;14.90;87.20;;;;;;6124574;23;20167;-92
2021/12/31 17:01:30;;;;;;;10.93;6.18;;;14.90;87.20;;;;;;6126463;23;20104;-92
2021/12/31 17:03:56;;;;;;;13.15;6.60;;;14.90;87.20;;;;;;6124741;23;20009;-92
2021/12/31 17:06:22;;;;;;;11.93;4.97;;;14.90;87.20;;;;;;6124292;23;20013;-91
2021/12/31 17:08:47;;;;;;;8.40;4.88;;;14.90;87.10;;;;;;6125685;23;20005;-92
2021/12/31 17:11:13;;;;;;;13.93;7.07;;;14.90;87.10;;;;;;6124228;23;20017;-92
2021/12/31 17:13:39;;;;;;;6.88;4.15;;;14.90;87.50;;;;;;6149839;23;20004;-92
2021/12/31 17:16:05;;;;;;;8.38;4.35;;;14.90;86.90;;;;;;6123666;23;20024;-90
2021/12/31 17:18:31;;;;;;;8.68;4.82;;;14.90;86.90;;;;;;6125776;23;20644;-92
2021/12/31 17:20:57;;;;;;;12.32;5.15;;;14.90;86.90;;;;;;6122678;23;20016;-91
2021/12/31 17:23:23;;;;;;;5.95;3.83;;;14.90;86.90;;;;;;6125103;23;20009;-91
2021/12/31 17:25:49;;;;;;;7.47;4.07;;;14.90;86.80;;;;;;6125918;23;20329;-91
2021/12/31 17:28:15;;;;;;;7.43;4.55;;;14.80;86.90;;;;;;6124769;23;20000;-91
2021/12/31 17:30:41;;;;;;;7.25;4.03;;;14.90;86.80;;;;;;6122397;23;20015;-91
2021/12/31 17:33:07;;;;;;;5.72;3.20;;;14.90;86.80;;;;;;6146918;23;20001;-91
2021/12/31 17:35:32;;;;;;;9.02;3.83;;;14.90;86.80;;;;;;6123935;23;20119;-93
2021/12/31 17:37:59;;;;;;;6.95;3.38;;;14.90;86.80;;;;;;6123192;23;20227;-92
2021/12/31 17:40:25;;;;;;;7.70;3.50;;;14.90;87.20;;;;;;6123329;23;20028;-92
2021/12/31 17:42:51;;;;;;;5.57;3.40;;;14.90;86.70;;;;;;6121202;23;20008;-90
2021/12/31 17:45:17;;;;;;;9.02;3.90;;;14.90;86.70;;;;;;6123058;23;20020;-91
2021/12/31 17:47:43;;;;;;;16.98;7.28;;;14.90;86.70;;;;;;6122671;23;20001;-92
2021/12/31 17:50:09;;;;;;;21.90;8.38;;;14.90;86.70;;;;;;6121282;23;20107;-90
2021/12/31 17:52:35;;;;;;;22.23;9.32;;;14.90;86.70;;;;;;6147930;23;20067;-89
2021/12/31 17:55:03;;;;;;;11.32;5.65;;;14.90;86.70;;;;;;6123761;23;20016;-91
2021/12/31 17:57:29;;;;;;;29.65;12.82;;;14.90;86.60;;;;;;6148824;23;20012;-91
2021/12/31 17:59:55;;;;;;;18.60;6.47;;;14.90;86.60;;;;;;6172136;23;20019;-93
2021/12/31 18:02:21;;;;;;;21.08;9.70;;;14.90;86.60;;;;;;6121871;23;20012;-89
2021/12/31 18:04:47;;;;;;;20.02;10.65;;;14.90;86.60;;;;;;6148262;23;20020;-93
2021/12/31 18:07:12;;;;;;;10.32;6.10;;;14.90;86.60;;;;;;6172638;23;20009;-92
2021/12/31 18:09:39;;;;;;;15.90;8.05;;;14.90;86.60;;;;;;6123124;23;20924;-91
2021/12/31 18:12:06;;;;;;;24.73;11.10;;;14.80;86.50;;;;;;6123795;23;20001;-91
2021/12/31 18:14:32;;;;;;;17.92;10.23;;;14.80;86.50;;;;;;6148674;23;20410;-92
2021/12/31 18:16:58;;;;;;;16.40;8.27;;;14.80;86.40;;;;;;6148014;23;20038;-92
2021/12/31 18:19:25;;;;;;;15.70;7.35;;;14.80;86.40;;;;;;6146911;23;20001;-92
2021/12/31 18:21:51;;;;;;;15.30;5.95;;;14.80;86.40;;;;;;6148420;23;20001;-93
2021/12/31 18:24:17;;;;;;;13.98;6.47;;;14.80;86.40;;;;;;6146790;23;20074;-96
2021/12/31 18:26:43;;;;;;;12.40;6.80;;;14.80;86.40;;;;;;6147665;23;20016;-96
2021/12/31 18:29:09;;;;;;;13.88;6.95;;;14.80;86.50;;;;;;6148118;23;20004;-96
2021/12/31 18:31:38;;;;;;;11.00;6.20;;;14.80;86.40;;;;;;6124991;23;20058;-92
2021/12/31 18:34:04;;;;;;;14.65;8.27;;;14.70;86.30;;;;;;6150331;23;20012;-94
2021/12/31 18:36:30;;;;;;;12.90;7.05;;;15.10;86.60;;;;;;6125510;23;20012;-95
2021/12/31 18:38:56;;;;;;;14.88;9.00;;;14.50;86.20;;;;;;6152380;23;20051;-95
2021/12/31 18:41:22;;;;;;;18.92;8.95;;;14.70;86.30;;;;;;6147408;23;20074;-95
2021/12/31 18:43:48;;;;;;;28.83;16.17;;;14.70;86.20;;;;;;6148158;23;20008;-92
2021/12/31 18:46:21;;;;;;;27.05;15.50;;;14.80;86.30;;;;;;6172664;23;20040;-94
2021/12/31 18:48:53;;;;;;;22.80;10.65;;;14.70;86.20;;;;;;6173587;23;20001;-94
2021/12/31 18:51:21;;;;;;;22.60;12.93;;;14.70;86.30;;;;;;6150058;23;20016;-94
2021/12/31 18:53:46;;;;;;;13.40;6.90;;;14.90;86.30;;;;;;6177466;23;20030;-92
2021/12/31 18:56:12;;;;;;;10.32;6.50;;;14.70;86.20;;;;;;6127087;23;20523;-93
2021/12/31 18:58:38;;;;;;;47.30;19.75;;;14.90;86.20;;;;;;6125247;23;20028;-92
2021/12/31 19:01:03;;;;;;;17.38;7.30;;;14.70;86.00;;;;;;6171871;23;20020;-94
2021/12/31 19:03:29;;;;;;;17.25;8.02;;;14.70;86.00;;;;;;6124367;23;20327;-93
2021/12/31 19:05:55;;;;;;;19.67;8.35;;;14.70;86.10;;;;;;6122567;23;20086;-95
2021/12/31 19:08:22;;;;;;;14.23;7.75;;;14.70;85.90;;;;;;6123136;23;20486;-94
2021/12/31 19:10:48;;;;;;;13.25;7.05;;;15.00;86.00;;;;;;6123648;23;20016;-93
2021/12/31 19:13:14;;;;;;;19.55;9.82;;;14.70;85.80;;;;;;6149669;23;20439;-95
2021/12/31 19:15:39;;;;;;;30.85;15.40;;;14.60;85.70;;;;;;6122656;23;20131;-94
2021/12/31 19:18:05;;;;;;;20.38;10.52;;;14.90;85.80;;;;;;6172202;23;20460;-92
2021/12/31 19:20:31;;;;;;;18.80;8.95;;;14.60;85.60;;;;;;6170420;23;20344;-95
2021/12/31 19:22:57;;;;;;;22.65;9.77;;;14.60;85.50;;;;;;6120965;23;20422;-95
2021/12/31 19:25:27;;;;;;;14.50;8.07;;;14.60;85.40;;;;;;6121108;23;20008;-94
2021/12/31 19:27:53;;;;;;;15.60;8.73;;;14.60;85.40;;;;;;6148738;23;20098;-95
2021/12/31 19:30:19;;;;;;;18.73;10.90;;;14.60;85.30;;;;;;6121244;23;20009;-93
2021/12/31 19:32:45;;;;;;;18.13;10.75;;;14.60;85.30;;;;;;6173132;23;20012;-94
2021/12/31 19:35:11;;;;;;;21.55;12.18;;;14.60;85.30;;;;;;6168490;23;20021;-94
2021/12/31 19:37:37;;;;;;;18.35;10.57;;;15.00;85.40;;;;;;6147677;23;20019;-94
2021/12/31 19:40:04;;;;;;;16.88;9.15;;;14.60;85.10;;;;;;6171662;23;20016;-92
2021/12/31 19:42:29;;;;;;;14.13;8.95;;;14.60;85.10;;;;;;6149644;23;20099;-94